Página principal
METAR-TAF:

METAR-TAF

Aeroportos :

Aeroporto Internacional de Mehrabad

Teerã, Irão

latitude: 35-41N, longitude: 051-21E, altura: 1204 m

Observação actual do tempo

O boletim foi feito há 45 minutos, às 15:00 UTC
Vento 14 kt de oeste
Temperatura 7°C
Humidade 36%
Pressão 1011 hPa
Visibilidade 10 km ou mais
Poucas nuvensa uma altura de 3500 ft

METAR: OIII 171500Z 28014KT 9999 FEW035 07/M07 Q1011 A2986

Hora: 19:15 (15:45 UTC)

Previsão

O boletim foi feito há 4 horas e 45 minutos, às 11:00 UTC
Previsão válida de 17 às 12 UTC a 18 às 18 UTC
Vento 18 kt de oes-sudoeste
Visibilidade: 8000 m
Temporariamente
de 17 às 12 UTC a 17 às 18 UTC
Vento 18 kt de oeste com rajadas de 30 kt
Visibilidade: 6000 m
Poucas nuvensa uma altura de 3500 ft, Cumulus congestus.
Nuvens dispersasa uma altura de 4000 ft
Nuvens dispersasa uma altura de 10000 ft

TAF: OIII 171100Z 1712/1818 25018KT 8000 NSC TEMPO 1712/1718 26018G30KT 6000 FEW035TCU SCT040 SCT100

Observações e previsões do tempo de mais de 4000 aeroportos (mensagens METAR e TAF).

As estações disponíveis são os pontos amarelos e vermelhos sobre o mapa.

Mova o rato sobre o mapa para ver o nome da estação.

Depois clique no ponto para visualizar as observações e previsões meteorológicas.

Para alterar o mapa : clique nos botões verdes com uma cruz preta para aumentar o zoom; no botão verde com uma pitada de zoom; ou nas setas verdes para mapas adjacentes.


METAR-TAF: